Time;durP1;ratioP1;P1;durP2;ratioP2;P2;SDS_P1;SDS_P2;PMS_P1;PMS_P2;Temp;Humidity;BMP_temperature;BMP_pressure;BME280_temperature;BME280_humidity;BME280_pressure;Samples;Min_cycle;Max_cycle;Signal;HPM_P1;HPM_P2
2024/02/26 00:01:52;;;;;;;8.82;6.55;;;4.00;99.90;;;;;;5026360;28;20534;-47
2024/02/26 00:04:19;;;;;;;9.90;6.43;;;4.00;99.90;;;;;;5027386;28;20115;-47
2024/02/26 00:06:46;;;;;;;9.98;6.60;;;4.00;99.90;;;;;;5031106;28;20265;-51
2024/02/26 00:09:13;;;;;;;10.32;6.57;;;4.00;99.90;;;;;;5035117;28;20041;-46
2024/02/26 00:11:40;;;;;;;11.88;7.10;;;4.00;99.90;;;;;;5032197;28;20116;-44
2024/02/26 00:14:07;;;;;;;11.57;7.00;;;4.00;99.90;;;;;;5025656;28;20041;-45
2024/02/26 00:16:34;;;;;;;10.35;7.55;;;4.00;99.90;;;;;;5027878;28;20051;-43
2024/02/26 00:19:01;;;;;;;9.23;6.13;;;4.00;99.90;;;;;;5024123;28;20048;-43
2024/02/26 00:21:28;;;;;;;10.52;7.30;;;4.00;99.90;;;;;;5028027;28;20883;-48
2024/02/26 00:23:55;;;;;;;9.27;6.38;;;4.00;99.90;;;;;;5029752;28;20053;-46
2024/02/26 00:26:22;;;;;;;9.73;6.53;;;4.00;99.90;;;;;;5033718;28;20045;-46
2024/02/26 00:28:49;;;;;;;12.90;6.85;;;4.00;99.90;;;;;;5031932;28;20049;-47
2024/02/26 00:31:16;;;;;;;12.18;7.20;;;4.10;99.90;;;;;;5031291;28;20075;-44
2024/02/26 00:33:43;;;;;;;12.88;7.18;;;4.00;99.90;;;;;;5028845;28;20327;-47
2024/02/26 00:36:10;;;;;;;13.20;7.68;;;4.00;99.90;;;;;;5037619;28;20097;-49
2024/02/26 00:38:37;;;;;;;9.73;7.05;;;4.10;99.90;;;;;;5030968;28;20045;-50
2024/02/26 00:41:04;;;;;;;11.68;7.60;;;4.10;99.90;;;;;;5030699;28;20427;-49
2024/02/26 00:43:31;;;;;;;11.30;7.43;;;4.10;99.90;;;;;;5030329;28;20049;-47
2024/02/26 00:45:58;;;;;;;14.25;8.65;;;4.00;99.90;;;;;;5032714;28;20510;-46
2024/02/26 00:48:25;;;;;;;13.88;7.50;;;4.00;99.90;;;;;;5031177;28;20049;-49
2024/02/26 00:50:53;;;;;;;13.65;8.18;;;4.00;99.90;;;;;;5032205;28;20065;-50
2024/02/26 00:53:19;;;;;;;14.57;8.43;;;4.10;99.90;;;;;;5033765;28;20045;-43
2024/02/26 00:55:46;;;;;;;15.30;8.77;;;4.20;99.90;;;;;;5029315;28;20297;-47
2024/02/26 00:58:13;;;;;;;12.80;7.82;;;4.10;99.90;;;;;;5028877;28;20494;-44
2024/02/26 01:00:40;;;;;;;15.88;9.43;;;4.20;99.90;;;;;;5022645;28;20160;-43
2024/02/26 01:03:08;;;;;;;13.32;9.00;;;4.20;99.90;;;;;;5026430;28;20088;-42
2024/02/26 01:05:35;;;;;;;15.18;9.18;;;4.30;99.90;;;;;;5026826;28;20060;-45
2024/02/26 01:08:02;;;;;;;17.10;8.43;;;4.20;99.90;;;;;;5024853;28;20129;-45
2024/02/26 01:10:29;;;;;;;15.93;9.38;;;4.20;99.90;;;;;;5027278;28;20037;-44
2024/02/26 01:12:56;;;;;;;17.45;9.05;;;4.20;99.90;;;;;;5026901;28;20041;-48
2024/02/26 01:15:23;;;;;;;15.23;8.63;;;4.20;99.90;;;;;;5028095;28;20120;-49
2024/02/26 01:17:51;;;;;;;16.73;9.10;;;4.10;99.90;;;;;;5028126;28;20069;-45
2024/02/26 01:20:18;;;;;;;16.50;8.95;;;4.10;99.90;;;;;;5027741;28;20045;-47
2024/02/26 01:22:45;;;;;;;16.42;9.18;;;4.10;99.90;;;;;;5029371;28;20049;-45
2024/02/26 01:25:13;;;;;;;15.80;9.68;;;4.10;99.90;;;;;;5030119;28;20513;-42
2024/02/26 01:27:41;;;;;;;14.75;8.63;;;4.00;99.90;;;;;;5027641;28;20049;-47
2024/02/26 01:30:08;;;;;;;17.05;9.70;;;4.00;99.90;;;;;;5033662;28;20246;-48
2024/02/26 01:32:36;;;;;;;15.25;8.65;;;4.00;99.90;;;;;;5032942;28;20037;-45
2024/02/26 01:35:03;;;;;;;17.75;9.57;;;4.00;99.90;;;;;;5027320;28;20489;-43
2024/02/26 01:37:30;;;;;;;16.00;9.13;;;4.00;99.90;;;;;;5029977;28;20068;-48
2024/02/26 01:39:57;;;;;;;15.70;9.57;;;4.00;99.90;;;;;;5030068;28;20038;-48
2024/02/26 01:42:24;;;;;;;16.98;10.00;;;4.10;99.90;;;;;;5030532;28;20671;-50
2024/02/26 01:44:51;;;;;;;16.10;9.73;;;4.10;99.90;;;;;;5028217;28;20037;-43
2024/02/26 01:47:18;;;;;;;17.75;9.85;;;4.10;99.90;;;;;;5030288;28;20073;-45
2024/02/26 01:49:45;;;;;;;17.65;9.65;;;4.20;99.90;;;;;;5012307;28;20140;-49
2024/02/26 01:52:13;;;;;;;18.20;9.45;;;4.20;99.90;;;;;;5031548;28;20034;-51
2024/02/26 01:54:41;;;;;;;16.60;8.95;;;4.20;99.90;;;;;;5036941;28;20041;-44
2024/02/26 01:57:08;;;;;;;17.98;9.65;;;4.20;99.90;;;;;;5036546;28;20080;-44
2024/02/26 01:59:36;;;;;;;16.67;9.40;;;4.30;99.90;;;;;;5032879;28;20053;-47
2024/02/26 02:02:07;;;;;;;13.43;8.35;;;4.30;99.90;;;;;;5033376;28;20206;-48
2024/02/26 02:04:35;;;;;;;17.63;10.27;;;4.30;99.90;;;;;;5032179;28;20104;-45
2024/02/26 02:07:03;;;;;;;17.83;9.93;;;4.40;99.90;;;;;;5029534;28;20584;-43
2024/02/26 02:09:30;;;;;;;15.15;9.05;;;4.40;99.90;;;;;;5031920;28;20041;-41
2024/02/26 02:11:58;;;;;;;18.80;9.48;;;4.40;99.90;;;;;;5029180;28;20485;-50
2024/02/26 02:14:26;;;;;;;16.83;9.80;;;4.40;99.90;;;;;;5032049;28;20199;-47
2024/02/26 02:16:53;;;;;;;16.20;9.60;;;4.40;99.90;;;;;;5009849;28;20045;-44
2024/02/26 02:19:19;;;;;;;16.85;9.27;;;4.40;99.90;;;;;;5028145;28;20049;-48
2024/02/26 02:21:46;;;;;;;17.65;9.75;;;4.50;99.90;;;;;;5028561;28;20037;-48
2024/02/26 02:24:13;;;;;;;16.52;9.45;;;4.50;99.90;;;;;;5029140;28;20041;-50
2024/02/26 02:26:40;;;;;;;18.63;9.73;;;4.50;99.90;;;;;;5027590;28;20149;-54
2024/02/26 02:29:09;;;;;;;13.90;8.30;;;4.50;99.90;;;;;;5027601;28;20061;-43
2024/02/26 02:31:36;;;;;;;17.90;9.05;;;4.50;99.90;;;;;;5027299;28;20407;-49
2024/02/26 02:34:03;;;;;;;14.48;8.60;;;4.50;99.90;;;;;;5020495;28;20052;-48
2024/02/26 02:36:30;;;;;;;15.43;9.27;;;4.50;99.90;;;;;;5031012;28;20046;-49
2024/02/26 02:38:57;;;;;;;15.57;8.48;;;4.50;99.90;;;;;;5028655;28;20075;-45
2024/02/26 02:41:26;;;;;;;14.63;8.73;;;4.50;99.90;;;;;;5027153;28;20045;-45
2024/02/26 02:43:53;;;;;;;15.32;8.38;;;4.50;99.90;;;;;;5028158;28;20050;-43
2024/02/26 02:46:20;;;;;;;12.85;7.90;;;4.50;99.90;;;;;;5033686;28;20156;-49
2024/02/26 02:48:47;;;;;;;13.57;8.43;;;4.40;99.90;;;;;;5028673;28;20490;-44
2024/02/26 02:51:14;;;;;;;16.50;8.75;;;4.50;99.90;;;;;;5026817;28;20041;-46
2024/02/26 02:53:41;;;;;;;15.95;8.23;;;4.40;99.90;;;;;;5030793;28;20130;-48
2024/02/26 02:56:08;;;;;;;16.45;9.48;;;4.40;99.90;;;;;;5025833;28;20077;-44
2024/02/26 02:58:35;;;;;;;15.30;9.40;;;4.40;99.90;;;;;;5028282;28;20065;-46
2024/02/26 03:01:02;;;;;;;15.30;8.88;;;4.30;99.90;;;;;;5027242;28;20049;-45
2024/02/26 03:03:30;;;;;;;19.90;10.18;;;4.30;99.90;;;;;;5028035;28;20838;-44
2024/02/26 03:05:56;;;;;;;14.20;8.77;;;4.40;99.90;;;;;;5025957;28;20129;-51
2024/02/26 03:08:25;;;;;;;14.52;8.70;;;4.40;99.90;;;;;;5025572;28;20104;-44
2024/02/26 03:10:53;;;;;;;14.40;8.18;;;4.40;99.90;;;;;;5023668;28;20037;-51
2024/02/26 03:13:20;;;;;;;14.65;8.43;;;4.40;99.90;;;;;;5025974;28;20048;-47
2024/02/26 03:15:47;;;;;;;15.65;8.77;;;4.40;99.90;;;;;;5026396;28;20063;-50
2024/02/26 03:18:13;;;;;;;16.40;9.32;;;4.40;99.90;;;;;;5027284;28;20092;-45
2024/02/26 03:20:41;;;;;;;16.02;9.13;;;4.50;99.90;;;;;;5028588;28;20511;-47
2024/02/26 03:23:11;;;;;;;12.98;7.82;;;4.50;99.90;;;;;;5024602;28;20056;-41
2024/02/26 03:25:38;;;;;;;17.85;8.63;;;4.50;99.90;;;;;;5029715;28;20045;-47
2024/02/26 03:28:05;;;;;;;15.27;8.52;;;4.50;99.90;;;;;;5024796;28;20125;-45
2024/02/26 03:30:34;;;;;;;17.38;9.18;;;4.50;99.90;;;;;;5027776;28;20449;-48
2024/02/26 03:33:01;;;;;;;15.13;8.45;;;4.50;99.90;;;;;;5029207;28;20056;-46
2024/02/26 03:39:23;;;;;;;14.73;8.27;;;4.50;99.90;;;;;;5028093;28;20048;-45
2024/02/26 03:41:50;;;;;;;16.75;8.85;;;4.50;99.90;;;;;;5032636;28;20276;-47
2024/02/26 03:44:17;;;;;;;14.77;8.32;;;4.40;99.90;;;;;;5035256;28;20084;-45
2024/02/26 03:46:44;;;;;;;15.52;9.13;;;4.40;99.90;;;;;;5012547;28;20131;-50
2024/02/26 03:49:10;;;;;;;15.00;8.65;;;4.40;99.90;;;;;;5027362;28;20045;-49
2024/02/26 03:51:37;;;;;;;17.40;8.43;;;4.30;99.90;;;;;;5026562;28;20084;-43
2024/02/26 03:54:04;;;;;;;15.82;8.93;;;4.30;99.90;;;;;;5028704;28;20415;-42
2024/02/26 03:56:31;;;;;;;15.52;8.85;;;4.30;99.90;;;;;;5025030;28;20045;-46
2024/02/26 03:58:59;;;;;;;16.67;8.48;;;4.20;99.90;;;;;;5025917;28;20099;-47
2024/02/26 04:01:26;;;;;;;16.85;8.68;;;4.20;99.90;;;;;;5025931;28;20045;-49
2024/02/26 04:03:54;;;;;;;17.05;8.90;;;4.20;99.90;;;;;;5026821;28;20513;-50
2024/02/26 04:06:22;;;;;;;14.45;8.10;;;4.10;99.90;;;;;;5024739;28;20056;-48
2024/02/26 04:08:49;;;;;;;14.80;8.27;;;4.20;99.90;;;;;;5023921;28;20137;-49
2024/02/26 04:11:18;;;;;;;14.88;8.40;;;4.20;99.90;;;;;;5025621;28;20426;-53
2024/02/26 04:13:50;;;;;;;12.20;7.57;;;4.30;99.90;;;;;;5027621;28;20075;-46
2024/02/26 04:16:18;;;;;;;12.18;7.30;;;4.30;99.90;;;;;;5025906;28;20534;-44
2024/02/26 04:18:45;;;;;;;14.07;7.50;;;4.30;99.90;;;;;;5025980;28;20418;-44
2024/02/26 04:21:12;;;;;;;13.38;7.82;;;4.30;99.90;;;;;;5026090;28;20041;-46
2024/02/26 04:23:39;;;;;;;13.18;7.10;;;4.30;99.90;;;;;;5024196;28;20052;-48
2024/02/26 04:26:06;;;;;;;15.18;7.55;;;4.40;99.90;;;;;;5025373;28;20142;-45
2024/02/26 04:28:33;;;;;;;14.20;8.80;;;4.40;99.90;;;;;;5024239;28;20084;-45
2024/02/26 04:30:59;;;;;;;16.10;8.40;;;4.50;99.90;;;;;;5026344;28;20148;-44
2024/02/26 04:33:26;;;;;;;13.85;8.05;;;4.50;99.90;;;;;;5024310;28;20544;-46
2024/02/26 04:35:53;;;;;;;13.18;7.28;;;4.50;99.90;;;;;;5026014;28;20054;-46
2024/02/26 04:38:20;;;;;;;13.50;8.18;;;4.60;99.90;;;;;;5025498;28;20509;-47
2024/02/26 04:40:47;;;;;;;15.35;7.75;;;4.60;99.90;;;;;;5025943;28;20052;-51
2024/02/26 04:43:14;;;;;;;13.35;8.25;;;4.60;99.90;;;;;;5022942;28;20080;-47
2024/02/26 04:45:41;;;;;;;13.10;7.72;;;4.60;99.90;;;;;;5025383;28;20422;-49
2024/02/26 04:48:08;;;;;;;14.02;6.93;;;4.60;99.90;;;;;;5028590;28;20628;-47
2024/02/26 04:50:35;;;;;;;14.25;7.50;;;4.60;99.90;;;;;;5027141;28;20044;-47
2024/02/26 04:53:02;;;;;;;16.38;8.90;;;4.70;99.90;;;;;;5027085;28;20157;-48
2024/02/26 04:55:29;;;;;;;13.75;8.13;;;4.70;99.90;;;;;;5030539;28;20474;-48
2024/02/26 04:57:56;;;;;;;17.63;7.65;;;4.70;99.90;;;;;;5032571;28;20116;-44
2024/02/26 05:00:23;;;;;;;13.13;8.40;;;4.70;99.90;;;;;;5033591;28;20053;-46
2024/02/26 05:02:50;;;;;;;12.98;7.88;;;4.70;99.90;;;;;;5032104;28;20135;-47
2024/02/26 05:05:18;;;;;;;13.95;7.93;;;4.70;99.90;;;;;;5028526;28;20235;-43
2024/02/26 05:07:45;;;;;;;13.90;7.97;;;4.80;99.90;;;;;;5027247;28;20056;-44
2024/02/26 05:10:12;;;;;;;12.48;7.80;;;4.80;99.90;;;;;;5029382;28;20077;-47
2024/02/26 05:12:40;;;;;;;11.05;6.75;;;4.80;99.90;;;;;;5036219;28;20235;-45
2024/02/26 05:15:08;;;;;;;10.52;6.65;;;4.80;99.90;;;;;;5037903;28;20045;-51
2024/02/26 05:17:35;;;;;;;10.35;6.22;;;4.80;99.90;;;;;;5036366;28;20056;-46
2024/02/26 05:20:02;;;;;;;11.70;6.57;;;4.80;99.90;;;;;;5036784;28;20277;-46
2024/02/26 05:22:29;;;;;;;9.23;5.82;;;4.80;99.90;;;;;;5037066;28;20080;-48
2024/02/26 05:24:56;;;;;;;10.88;7.03;;;4.80;99.90;;;;;;5038725;28;20409;-45
2024/02/26 05:27:24;;;;;;;10.95;6.65;;;4.80;99.90;;;;;;5027379;28;20135;-49
2024/02/26 05:29:51;;;;;;;12.40;6.10;;;4.80;99.90;;;;;;5029225;28;20597;-46
2024/02/26 05:32:18;;;;;;;10.98;6.47;;;4.80;99.90;;;;;;5031311;28;20724;-43
2024/02/26 05:34:45;;;;;;;10.55;6.22;;;4.80;99.90;;;;;;5030781;28;20060;-47
2024/02/26 05:37:12;;;;;;;11.38;6.28;;;4.80;99.90;;;;;;5031605;28;20119;-43
2024/02/26 05:39:39;;;;;;;11.50;6.88;;;4.80;99.90;;;;;;5030220;28;20103;-49
2024/02/26 05:42:08;;;;;;;11.68;7.63;;;4.80;99.90;;;;;;5031122;28;20045;-47
2024/02/26 05:44:35;;;;;;;11.60;6.90;;;4.80;99.90;;;;;;5034988;28;20044;-48
2024/02/26 05:47:02;;;;;;;12.45;6.18;;;4.80;99.90;;;;;;5034221;28;20049;-45
2024/02/26 05:49:33;;;;;;;11.10;6.57;;;4.80;99.90;;;;;;5031761;28;20068;-48
2024/02/26 05:52:00;;;;;;;8.73;5.85;;;4.80;99.90;;;;;;5031447;28;20120;-47
2024/02/26 05:54:27;;;;;;;11.55;5.93;;;4.90;99.90;;;;;;5036485;28;20045;-46
2024/02/26 05:56:54;;;;;;;9.93;6.60;;;4.90;99.90;;;;;;5032921;28;20507;-52
2024/02/26 05:59:21;;;;;;;10.40;6.03;;;4.80;99.90;;;;;;5031829;28;20136;-48
2024/02/26 06:01:48;;;;;;;9.60;6.60;;;4.80;99.90;;;;;;5032189;28;20055;-46
2024/02/26 06:04:17;;;;;;;10.02;5.90;;;4.80;99.90;;;;;;5028191;28;20117;-48
2024/02/26 06:06:45;;;;;;;10.85;6.40;;;4.80;99.90;;;;;;5026326;28;20128;-48
2024/02/26 06:09:12;;;;;;;12.35;6.80;;;4.80;99.90;;;;;;5030592;28;20079;-45
2024/02/26 06:11:39;;;;;;;12.43;7.57;;;4.80;99.90;;;;;;5035023;28;20046;-46
2024/02/26 06:14:06;;;;;;;18.05;10.00;;;4.80;99.90;;;;;;5027002;28;20116;-49
2024/02/26 06:16:33;;;;;;;13.82;7.88;;;4.80;99.90;;;;;;5028572;28;20045;-48
2024/02/26 06:19:00;;;;;;;9.27;5.82;;;4.80;99.90;;;;;;5030692;28;20128;-46
2024/02/26 06:21:27;;;;;;;10.98;6.65;;;4.90;99.90;;;;;;5028712;28;20033;-49
2024/02/26 06:23:54;;;;;;;9.43;5.80;;;4.90;99.90;;;;;;5028416;28;20220;-49
2024/02/26 06:26:21;;;;;;;9.70;6.15;;;4.90;99.90;;;;;;5027055;28;20034;-49
2024/02/26 06:28:48;;;;;;;11.23;6.20;;;4.90;99.90;;;;;;5029390;28;20080;-51
2024/02/26 06:31:15;;;;;;;11.45;6.50;;;5.00;99.90;;;;;;5029160;28;20080;-48
2024/02/26 06:33:42;;;;;;;11.20;5.93;;;4.90;99.90;;;;;;5024470;28;20129;-47
2024/02/26 06:36:09;;;;;;;11.82;6.05;;;5.00;99.90;;;;;;5026552;28;20071;-46
2024/02/26 06:38:36;;;;;;;9.15;6.15;;;5.00;99.90;;;;;;5025244;28;20053;-50
2024/02/26 06:41:03;;;;;;;9.93;6.40;;;5.00;99.90;;;;;;5030584;28;20123;-44
2024/02/26 06:43:30;;;;;;;11.30;6.32;;;5.00;99.90;;;;;;5024334;28;20513;-48
2024/02/26 06:45:58;;;;;;;9.50;6.13;;;5.10;99.90;;;;;;5029200;28;20056;-43
2024/02/26 06:48:25;;;;;;;12.35;6.80;;;5.20;99.90;;;;;;5027130;28;20077;-45
2024/02/26 06:50:52;;;;;;;11.32;6.15;;;5.20;99.90;;;;;;5029604;28;20052;-46
2024/02/26 06:53:19;;;;;;;10.95;6.35;;;5.20;99.90;;;;;;5030648;28;20231;-46
2024/02/26 06:55:46;;;;;;;10.40;5.75;;;5.30;99.90;;;;;;5027831;28;20044;-46
2024/02/26 06:58:13;;;;;;;8.90;5.57;;;5.30;99.90;;;;;;5027853;28;20048;-47
2024/02/26 07:00:40;;;;;;;12.35;6.53;;;5.30;99.90;;;;;;5029495;28;20107;-47
2024/02/26 07:03:07;;;;;;;10.10;6.30;;;5.40;99.90;;;;;;5030848;28;20060;-45
2024/02/26 07:05:34;;;;;;;13.77;6.28;;;5.50;99.90;;;;;;5026844;28;20049;-46
2024/02/26 07:08:01;;;;;;;11.98;5.93;;;5.60;99.90;;;;;;5029689;28;20115;-52
2024/02/26 07:10:28;;;;;;;10.93;6.28;;;5.70;99.90;;;;;;5030444;28;20065;-47
2024/02/26 07:12:55;;;;;;;9.88;6.32;;;5.70;99.90;;;;;;5030004;28;20056;-46
2024/02/26 07:15:22;;;;;;;10.48;6.47;;;5.80;99.90;;;;;;5034578;28;20065;-49
2024/02/26 07:17:49;;;;;;;13.60;6.90;;;5.90;99.90;;;;;;5031514;28;20128;-50
2024/02/26 07:20:18;;;;;;;11.25;6.50;;;6.00;99.90;;;;;;5031784;28;20076;-45
2024/02/26 07:22:45;;;;;;;12.98;7.85;;;6.10;99.90;;;;;;5029755;28;20497;-49
2024/02/26 07:25:13;;;;;;;11.60;8.10;;;6.10;99.90;;;;;;5024917;28;20050;-49
2024/02/26 07:27:40;;;;;;;14.00;7.00;;;6.10;99.90;;;;;;5030255;28;20048;-47
2024/02/26 07:30:09;;;;;;;10.05;6.75;;;6.10;99.90;;;;;;5028827;28;20147;-47
2024/02/26 07:32:36;;;;;;;12.68;6.00;;;6.20;99.90;;;;;;5029244;28;20571;-44
2024/02/26 07:35:03;;;;;;;11.05;6.32;;;6.20;99.90;;;;;;5028786;28;20049;-49
2024/02/26 07:37:30;;;;;;;10.63;7.25;;;6.30;99.90;;;;;;5025921;28;20609;-48
2024/02/26 07:39:57;;;;;;;12.00;7.15;;;6.50;99.90;;;;;;5025044;28;20033;-51
2024/02/26 07:42:24;;;;;;;9.68;7.07;;;6.70;99.90;;;;;;5028853;28;20081;-48
2024/02/26 07:44:52;;;;;;;13.65;7.00;;;6.90;99.90;;;;;;5028191;28;20056;-43
2024/02/26 07:47:19;;;;;;;10.02;6.65;;;7.20;99.90;;;;;;5028391;28;20080;-49
2024/02/26 07:49:46;;;;;;;9.00;6.60;;;7.40;99.90;;;;;;5027081;28;20060;-46
2024/02/26 07:52:13;;;;;;;9.38;6.30;;;7.50;99.90;;;;;;5029673;28;20041;-48
2024/02/26 07:54:40;;;;;;;11.10;7.20;;;7.60;99.90;;;;;;5030174;28;20132;-50
2024/02/26 07:57:07;;;;;;;12.57;7.50;;;7.70;99.90;;;;;;5031249;28;20048;-48
2024/02/26 07:59:34;;;;;;;12.45;7.45;;;7.80;99.90;;;;;;5024905;28;20506;-43
2024/02/26 08:02:03;;;;;;;10.75;7.13;;;7.80;99.90;;;;;;5026064;28;20061;-47
2024/02/26 08:04:30;;;;;;;11.25;7.45;;;7.80;99.90;;;;;;5024452;28;20045;-46
2024/02/26 08:06:57;;;;;;;9.93;6.70;;;7.90;99.90;;;;;;5026932;28;20122;-51
2024/02/26 08:09:24;;;;;;;10.98;7.38;;;8.10;99.90;;;;;;5021445;28;20064;-46
2024/02/26 08:11:51;;;;;;;6.85;5.80;;;8.10;99.90;;;;;;5024089;28;20128;-48
2024/02/26 08:14:18;;;;;;;9.50;6.60;;;8.20;99.90;;;;;;5027083;28;20129;-44
2024/02/26 08:16:45;;;;;;;8.63;6.28;;;8.20;99.90;;;;;;5029601;28;20049;-48
2024/02/26 08:19:14;;;;;;;9.32;5.93;;;8.20;99.90;;;;;;5030990;28;20053;-47
2024/02/26 08:21:42;;;;;;;9.18;6.40;;;8.20;99.90;;;;;;5028817;28;20049;-47
2024/02/26 08:24:09;;;;;;;9.00;6.70;;;8.20;99.90;;;;;;5027491;28;20073;-49
2024/02/26 08:26:36;;;;;;;11.20;6.68;;;8.00;99.90;;;;;;5022409;28;20049;-48
2024/02/26 08:29:03;;;;;;;13.55;7.40;;;8.00;99.90;;;;;;5024678;28;20049;-48
2024/02/26 08:31:30;;;;;;;10.18;6.80;;;8.00;99.90;;;;;;5026357;28;20074;-48
2024/02/26 08:33:59;;;;;;;9.23;6.30;;;8.00;99.90;;;;;;5026396;28;20061;-47
2024/02/26 08:36:26;;;;;;;12.25;7.03;;;7.90;99.90;;;;;;5026340;28;20077;-51
2024/02/26 08:38:53;;;;;;;9.35;6.20;;;7.90;99.90;;;;;;5010563;28;20056;-50
2024/02/26 08:41:20;;;;;;;10.00;6.25;;;7.80;99.90;;;;;;5025381;28;20049;-53
2024/02/26 08:43:47;;;;;;;10.60;6.80;;;7.90;99.90;;;;;;5027021;28;20045;-46
2024/02/26 08:46:14;;;;;;;9.60;6.80;;;7.90;99.90;;;;;;5033900;28;20037;-46
2024/02/26 08:48:41;;;;;;;9.68;6.55;;;8.00;99.90;;;;;;5030911;28;20096;-48
2024/02/26 08:51:09;;;;;;;9.77;6.88;;;8.10;99.90;;;;;;5026902;28;20041;-50
2024/02/26 08:53:36;;;;;;;10.68;6.85;;;8.10;99.90;;;;;;5028869;28;20030;-43
2024/02/26 08:56:16;;;;;;;10.52;7.80;;;8.20;99.90;;;;;;5027010;28;20033;-47
2024/02/26 08:58:48;;;;;;;8.65;6.72;;;8.30;99.90;;;;;;5025525;28;20148;-48
2024/02/26 09:01:16;;;;;;;14.60;7.40;;;8.50;99.90;;;;;;5026445;28;20057;-48
2024/02/26 09:03:43;;;;;;;11.95;7.45;;;8.60;99.90;;;;;;5026368;28;20076;-47
2024/02/26 09:06:11;;;;;;;11.35;7.80;;;8.80;99.90;;;;;;5025947;28;20136;-46
2024/02/26 09:08:38;;;;;;;11.43;7.63;;;9.00;99.90;;;;;;5027384;28;20049;-45
2024/02/26 09:11:05;;;;;;;12.43;7.25;;;9.20;99.90;;;;;;5027580;28;20046;-50
2024/02/26 09:13:32;;;;;;;10.27;7.45;;;9.40;99.90;;;;;;5026667;28;20053;-49
2024/02/26 09:15:59;;;;;;;9.25;7.32;;;9.60;99.90;;;;;;5026720;28;20210;-49
2024/02/26 09:18:28;;;;;;;10.43;6.97;;;9.80;99.90;;;;;;5008672;28;20056;-46
2024/02/26 09:20:55;;;;;;;13.85;7.13;;;10.00;99.90;;;;;;5026733;28;20465;-48
2024/02/26 09:23:22;;;;;;;10.50;7.43;;;10.20;99.90;;;;;;5023538;28;20045;-48
2024/02/26 09:25:49;;;;;;;12.30;6.97;;;10.40;99.90;;;;;;5025013;28;20249;-44
2024/02/26 09:28:17;;;;;;;13.15;7.65;;;10.70;99.90;;;;;;5024280;28;20532;-48
2024/02/26 09:30:44;;;;;;;13.65;8.30;;;11.00;99.90;;;;;;5024653;28;20115;-46
2024/02/26 09:33:13;;;;;;;9.75;6.47;;;11.40;99.90;;;;;;5026436;28;20113;-45
2024/02/26 09:35:41;;;;;;;9.13;7.10;;;11.60;99.90;;;;;;5021082;28;20069;-43
2024/02/26 09:38:08;;;;;;;10.25;6.72;;;11.80;99.90;;;;;;5025429;28;20057;-44
2024/02/26 09:40:37;;;;;;;8.55;6.60;;;11.90;99.90;;;;;;5022840;28;20461;-43
2024/02/26 09:43:05;;;;;;;9.43;7.47;;;11.70;99.90;;;;;;5028389;28;20073;-48
2024/02/26 09:45:34;;;;;;;8.50;7.35;;;11.80;99.90;;;;;;5029831;28;20361;-46
2024/02/26 09:48:04;;;;;;;10.07;7.57;;;11.80;99.90;;;;;;5033626;28;20039;-44
2024/02/26 09:50:31;;;;;;;9.88;7.13;;;11.80;99.90;;;;;;5030799;28;20512;-48
2024/02/26 09:53:02;;;;;;;8.68;6.38;;;11.60;99.90;;;;;;5030277;28;20041;-48
2024/02/26 09:55:29;;;;;;;8.68;6.57;;;11.50;99.90;;;;;;5033547;28;21314;-48
2024/02/26 09:57:58;;;;;;;9.27;6.88;;;11.50;99.90;;;;;;5030130;28;20152;-50
2024/02/26 10:00:30;;;;;;;8.82;6.47;;;11.60;99.90;;;;;;5028656;28;20053;-47
2024/02/26 10:02:58;;;;;;;7.55;5.78;;;11.80;99.90;;;;;;5029463;28;20581;-47
2024/02/26 10:05:26;;;;;;;8.27;6.53;;;11.80;99.90;;;;;;5027868;28;20417;-43
2024/02/26 10:07:55;;;;;;;8.45;7.03;;;11.90;99.90;;;;;;5009827;28;20502;-47
2024/02/26 10:10:22;;;;;;;8.48;7.45;;;12.00;99.90;;;;;;5027570;28;20045;-47
2024/02/26 10:12:50;;;;;;;9.13;7.57;;;11.90;99.90;;;;;;5028185;28;20529;-45
2024/02/26 10:15:17;;;;;;;10.70;7.72;;;11.80;99.90;;;;;;5029405;28;20044;-43
2024/02/26 10:17:44;;;;;;;9.05;6.65;;;11.70;99.90;;;;;;5030102;28;20276;-42
2024/02/26 10:20:15;;;;;;;8.35;6.15;;;11.80;99.90;;;;;;5030962;28;20038;-47
2024/02/26 10:22:44;;;;;;;8.15;6.30;;;12.00;99.90;;;;;;5027856;28;20053;-50
2024/02/26 10:25:11;;;;;;;8.55;6.65;;;12.10;99.90;;;;;;5028965;28;20045;-44
2024/02/26 10:27:41;;;;;;;8.35;6.68;;;12.20;99.90;;;;;;5022134;28;20124;-48
2024/02/26 10:30:18;;;;;;;8.75;6.20;;;12.30;99.90;;;;;;5024157;28;20336;-47
2024/02/26 10:32:46;;;;;;;10.00;6.45;;;12.40;99.90;;;;;;5026564;28;20053;-47
2024/02/26 10:35:18;;;;;;;10.65;6.93;;;12.60;99.90;;;;;;5027551;28;20041;-50
2024/02/26 10:37:46;;;;;;;9.90;6.93;;;12.80;99.90;;;;;;5028104;28;20067;-49
2024/02/26 10:40:14;;;;;;;10.90;6.97;;;12.90;99.90;;;;;;5021105;28;20038;-45
2024/02/26 10:42:42;;;;;;;9.50;7.20;;;13.00;99.90;;;;;;5027298;28;20071;-42
2024/02/26 10:45:10;;;;;;;12.15;6.47;;;13.00;99.90;;;;;;5028616;28;20469;-49
2024/02/26 10:47:37;;;;;;;8.68;6.90;;;13.10;99.90;;;;;;5030807;28;20465;-49
2024/02/26 10:50:06;;;;;;;9.45;6.75;;;13.10;99.90;;;;;;5030365;28;20128;-47
2024/02/26 10:52:36;;;;;;;9.13;6.90;;;13.20;99.90;;;;;;5032704;28;20052;-48
2024/02/26 10:55:06;;;;;;;7.10;6.38;;;13.30;99.90;;;;;;5028787;28;20167;-44
2024/02/26 10:57:40;;;;;;;9.32;6.60;;;13.30;99.90;;;;;;5028566;28;20080;-47
2024/02/26 11:00:12;;;;;;;8.60;6.82;;;13.40;99.90;;;;;;5027266;28;20045;-45
2024/02/26 11:02:40;;;;;;;8.43;6.63;;;13.70;99.90;;;;;;5028469;28;20037;-45
2024/02/26 11:05:08;;;;;;;7.07;6.30;;;13.90;99.90;;;;;;5030314;28;20201;-51
2024/02/26 11:07:38;;;;;;;8.25;6.53;;;14.10;99.90;;;;;;5028433;28;20057;-49
2024/02/26 11:10:06;;;;;;;8.48;6.10;;;14.30;99.90;;;;;;5023469;28;20041;-48
2024/02/26 11:12:37;;;;;;;10.77;6.82;;;14.30;99.90;;;;;;5026320;28;20231;-50
2024/02/26 11:15:05;;;;;;;8.30;6.50;;;14.30;99.90;;;;;;5033215;28;20048;-50
2024/02/26 11:17:34;;;;;;;7.93;6.15;;;14.50;99.90;;;;;;5029301;28;20053;-46
2024/02/26 11:20:05;;;;;;;7.38;6.10;;;14.60;99.90;;;;;;5026040;28;20136;-47
2024/02/26 11:22:33;;;;;;;8.80;6.50;;;14.90;99.90;;;;;;5028263;28;20120;-47
2024/02/26 11:25:00;;;;;;;10.48;7.15;;;15.30;99.90;;;;;;5023877;28;20076;-53
2024/02/26 11:27:32;;;;;;;13.98;8.48;;;15.70;99.90;;;;;;5025537;28;20049;-48
2024/02/26 11:30:01;;;;;;;8.50;7.40;;;16.00;99.90;;;;;;5031812;28;20064;-51
2024/02/26 11:32:30;;;;;;;8.93;6.32;;;16.10;99.90;;;;;;5032601;28;20065;-49
2024/02/26 11:34:58;;;;;;;7.30;6.40;;;16.20;99.90;;;;;;5028527;28;20079;-48
2024/02/26 11:37:25;;;;;;;8.30;6.63;;;16.40;99.90;;;;;;5032275;28;20068;-48
2024/02/26 11:39:53;;;;;;;9.82;6.60;;;16.70;99.90;;;;;;5030467;28;20109;-48
2024/02/26 11:42:24;;;;;;;8.45;6.43;;;17.10;99.90;;;;;;5037046;28;20037;-45
2024/02/26 11:44:51;;;;;;;;;;;17.30;99.90;;;;;;5024936;28;20049;-54
2024/02/26 11:47:20;;;;;;;7.72;6.93;;;17.40;99.90;;;;;;5022430;28;19983;-43
2024/02/26 11:49:47;;;;;;;7.72;6.70;;;17.80;99.90;;;;;;5022547;28;20049;-46
2024/02/26 11:52:15;;;;;;;7.50;6.45;;;17.70;99.90;;;;;;5023795;28;20124;-42
2024/02/26 11:54:48;;;;;;;7.80;7.00;;;18.20;99.50;;;;;;5026599;28;20053;-43
2024/02/26 11:57:38;;;;;;;7.75;6.57;;;18.60;97.70;;;;;;5024065;28;20050;-46
2024/02/26 12:00:14;;;;;;;8.43;6.35;;;18.80;96.60;;;;;;5029044;28;20057;-45
2024/02/26 12:02:57;;;;;;;7.68;6.95;;;18.90;96.00;;;;;;5023599;28;20159;-48
2024/02/26 12:05:26;;;;;;;7.95;7.15;;;19.30;96.20;;;;;;5025549;28;20480;-48
2024/02/26 12:07:56;;;;;;;7.85;6.80;;;19.60;97.20;;;;;;5028430;28;20049;-48
2024/02/26 12:10:35;;;;;;;7.78;6.97;;;19.90;95.40;;;;;;5027281;28;20052;-47
2024/02/26 12:13:08;;;;;;;7.53;6.72;;;19.60;92.80;;;;;;5028836;28;20069;-51
2024/02/26 12:15:40;;;;;;;7.70;6.95;;;20.10;93.20;;;;;;5028082;28;20041;-44
2024/02/26 12:18:09;;;;;;;8.90;8.00;;;20.70;94.10;;;;;;5007688;28;20053;-51
2024/02/26 12:20:39;;;;;;;8.65;7.60;;;20.80;91.80;;;;;;5025563;28;20045;-46
2024/02/26 12:23:06;;;;;;;8.52;7.72;;;21.30;90.80;;;;;;5021624;28;20580;-46
2024/02/26 12:25:33;;;;;;;7.72;6.93;;;21.60;89.10;;;;;;5022531;28;20049;-47
2024/02/26 12:28:00;;;;;;;7.50;6.80;;;21.70;86.60;;;;;;5024882;28;20140;-48
2024/02/26 12:30:29;;;;;;;7.05;6.43;;;22.40;87.00;;;;;;5025300;28;20141;-45
2024/02/26 12:33:01;;;;;;;8.77;7.63;;;22.80;81.40;;;;;;5024840;28;20064;-47
2024/02/26 12:35:28;;;;;;;7.90;7.20;;;22.80;79.70;;;;;;5024549;28;20443;-49
2024/02/26 12:37:55;;;;;;;7.70;7.00;;;22.30;81.90;;;;;;5025060;28;20060;-46
2024/02/26 12:40:22;;;;;;;7.75;7.05;;;21.70;79.50;;;;;;5006537;28;20502;-47
2024/02/26 12:42:50;;;;;;;8.00;7.30;;;20.80;81.30;;;;;;5025827;28;20046;-45
2024/02/26 12:45:17;;;;;;;7.80;7.10;;;20.40;84.20;;;;;;5022002;28;20045;-47
2024/02/26 12:47:49;;;;;;;8.25;7.45;;;20.30;86.90;;;;;;5024543;28;20091;-50
2024/02/26 12:50:17;;;;;;;7.28;6.57;;;20.70;85.00;;;;;;5023308;28;20585;-48
2024/02/26 12:52:45;;;;;;;8.68;6.75;;;22.00;84.90;;;;;;5029126;28;20525;-50
2024/02/26 12:55:18;;;;;;;7.90;6.40;;;23.30;81.50;;;;;;5025343;28;20152;-47